createdAt,value
2022-08-17T00:00:43.546Z,50.09
2022-08-17T00:03:15.064Z,50.51
2022-08-17T00:05:48.318Z,50.55
2022-08-17T00:08:20.258Z,50.85
2022-08-17T00:10:49.985Z,50.44
2022-08-17T00:13:25.715Z,50.70
2022-08-17T00:15:58.616Z,50.92
2022-08-17T00:19:05.718Z,51.09
2022-08-17T00:21:25.153Z,51.00
2022-08-17T00:23:54.906Z,51.13
2022-08-17T00:26:43.716Z,51.19
2022-08-17T00:29:16.484Z,51.37
2022-08-17T00:31:50.303Z,51.49
2022-08-17T00:34:19.298Z,52.27
2022-08-17T00:36:47.684Z,51.98
2022-08-17T00:39:16.052Z,52.12
2022-08-17T00:41:44.536Z,52.18
2022-08-17T00:44:13.134Z,52.50
2022-08-17T00:46:44.272Z,52.57
2022-08-17T00:49:15.920Z,52.45
2022-08-17T00:51:49.425Z,52.58
2022-08-17T00:54:23.841Z,52.65
2022-08-17T00:56:55.552Z,52.54
2022-08-17T00:59:30.824Z,52.75
2022-08-17T01:02:00.214Z,52.55
2022-08-17T01:04:31.366Z,53.32
2022-08-17T01:07:02.594Z,53.61
2022-08-17T01:09:32.387Z,53.42
2022-08-17T01:12:01.473Z,53.91
2022-08-17T01:14:29.913Z,54.09
2022-08-17T01:16:58.372Z,54.22
2022-08-17T01:19:32.056Z,54.27
2022-08-17T01:22:06.915Z,54.01
2022-08-17T01:24:39.138Z,54.22
2022-08-17T01:27:10.445Z,54.05
2022-08-17T01:29:43.157Z,54.54
2022-08-17T01:32:11.758Z,54.70
2022-08-17T01:34:43.942Z,54.75
2022-08-17T01:37:21.059Z,54.69
2022-08-17T01:39:55.347Z,54.86
2022-08-17T01:42:28.136Z,55.18
2022-08-17T01:45:00.367Z,55.03
2022-08-17T01:47:29.880Z,55.59
2022-08-17T01:49:59.478Z,55.85
2022-08-17T01:52:27.717Z,55.25
2022-08-17T01:54:58.353Z,55.87
2022-08-17T01:57:26.711Z,55.61
2022-08-17T01:59:55.119Z,55.82
2022-08-17T02:02:30.888Z,56.12
2022-08-17T02:05:00.505Z,55.91
2022-08-17T02:07:29.223Z,56.09
2022-08-17T02:09:59.510Z,55.99
2022-08-17T02:12:39.024Z,56.35
2022-08-17T02:15:12.429Z,56.45
2022-08-17T02:17:41.497Z,56.46
2022-08-17T02:20:11.517Z,56.59
2022-08-17T02:22:42.454Z,56.83
2022-08-17T02:25:17.296Z,57.02
2022-08-17T02:27:45.768Z,57.52
2022-08-17T02:31:00.194Z,57.11
2022-08-17T02:33:06.376Z,57.56
2022-08-17T02:35:38.218Z,57.50
2022-08-17T02:38:07.793Z,57.52
2022-08-17T02:40:40.610Z,57.43
2022-08-17T02:43:09.743Z,57.50
2022-08-17T02:45:38.369Z,57.66
2022-08-17T02:48:07.110Z,57.92
2022-08-17T02:50:35.519Z,57.94
2022-08-17T02:53:05.119Z,58.08
2022-08-17T02:55:40.197Z,58.15
2022-08-17T02:58:10.542Z,58.25
2022-08-17T03:00:42.411Z,58.26
2022-08-17T03:03:13.496Z,58.25
2022-08-17T03:05:41.944Z,58.21
2022-08-17T03:08:12.954Z,58.43
2022-08-17T03:10:43.385Z,58.41
2022-08-17T03:13:14.314Z,58.58
2022-08-17T03:15:45.850Z,58.79
2022-08-17T03:18:18.938Z,58.93
2022-08-17T03:20:55.734Z,58.72
2022-08-17T03:23:25.540Z,58.83
2022-08-17T03:25:56.287Z,58.53
2022-08-17T03:28:26.259Z,58.50
2022-08-17T03:30:54.722Z,58.85
2022-08-17T03:33:23.552Z,59.10
2022-08-17T03:35:52.385Z,58.82
2022-08-17T03:38:21.872Z,58.95
2022-08-17T03:40:56.361Z,58.97
2022-08-17T03:43:31.424Z,59.19
2022-08-17T03:46:29.040Z,59.21
2022-08-17T03:49:22.574Z,59.33
2022-08-17T03:52:08.761Z,59.68
2022-08-17T03:54:55.101Z,59.91
2022-08-17T03:57:23.572Z,59.75
2022-08-17T03:59:53.606Z,59.63
2022-08-17T04:02:25.876Z,59.78
2022-08-17T04:04:54.767Z,59.90
2022-08-17T04:07:26.185Z,59.95
2022-08-17T04:09:55.009Z,60.11
2022-08-17T04:12:25.031Z,60.07
2022-08-17T04:14:55.233Z,60.33
2022-08-17T04:17:27.790Z,61.16
2022-08-17T04:19:57.654Z,61.80
2022-08-17T04:22:33.179Z,61.57
2022-08-17T04:25:11.164Z,61.83
2022-08-17T04:27:39.657Z,62.16
2022-08-17T04:30:11.751Z,62.14
2022-08-17T04:33:05.366Z,62.05
2022-08-17T04:35:39.290Z,61.83
2022-08-17T04:38:09.733Z,61.90
2022-08-17T04:40:55.730Z,62.38
2022-08-17T04:43:27.092Z,62.37
2022-08-17T04:46:00.042Z,62.43
2022-08-17T04:48:35.388Z,62.74
2022-08-17T04:51:09.786Z,62.96
2022-08-17T04:53:39.981Z,62.62
2022-08-17T04:56:16.192Z,62.83
2022-08-17T04:58:49.717Z,62.85
2022-08-17T05:01:23.236Z,62.62
2022-08-17T05:03:53.225Z,62.97
2022-08-17T05:06:22.162Z,62.97
2022-08-17T05:08:50.701Z,62.85
2022-08-17T05:11:19.597Z,62.67
2022-08-17T05:13:50.057Z,64.01
2022-08-17T05:16:21.164Z,64.79
2022-08-17T05:18:49.850Z,64.17
2022-08-17T05:21:19.920Z,64.42
2022-08-17T05:23:52.673Z,64.14
2022-08-17T05:26:26.310Z,64.24
2022-08-17T05:28:58.473Z,63.22
2022-08-17T05:31:30.986Z,62.41
2022-08-17T05:33:59.640Z,62.19
2022-08-17T05:36:43.543Z,62.03
2022-08-17T05:39:16.600Z,63.16
2022-08-17T05:41:48.105Z,62.96
2022-08-17T05:44:17.483Z,62.96
2022-08-17T05:46:51.490Z,63.97
2022-08-17T05:49:27.350Z,63.28
2022-08-17T05:52:22.447Z,62.62
2022-08-17T05:55:06.878Z,62.95
2022-08-17T05:57:49.702Z,62.54
2022-08-17T06:00:26.292Z,62.63
2022-08-17T06:03:20.206Z,62.45
2022-08-17T06:06:02.995Z,63.20
2022-08-17T06:08:42.144Z,63.17
2022-08-17T06:11:24.221Z,63.84
2022-08-17T06:14:23.138Z,62.81
2022-08-17T06:16:57.672Z,62.52
2022-08-17T06:19:34.731Z,64.76
2022-08-17T06:22:05.751Z,62.59
2022-08-17T06:24:38.981Z,63.56
2022-08-17T06:27:14.382Z,63.23
2022-08-17T06:29:52.538Z,63.06
2022-08-17T06:32:21.269Z,63.50
2022-08-17T06:34:51.512Z,63.54
2022-08-17T06:37:39.600Z,63.15
2022-08-17T06:40:38.137Z,63.15
2022-08-17T06:43:26.146Z,61.76
2022-08-17T06:46:04.124Z,61.66
2022-08-17T06:48:42.702Z,61.21
2022-08-17T06:51:23.968Z,60.92
2022-08-17T06:54:00.089Z,60.02
2022-08-17T06:56:53.694Z,60.20
2022-08-17T06:59:30.429Z,60.91
2022-08-17T07:02:28.913Z,61.40
2022-08-17T07:05:01.734Z,62.12
2022-08-17T07:07:50.601Z,62.62
2022-08-17T07:10:21.215Z,61.68
2022-08-17T07:12:52.187Z,61.39
2022-08-17T07:15:26.372Z,61.63
2022-08-17T07:17:55.857Z,61.35
2022-08-17T07:20:24.267Z,60.78
2022-08-17T07:23:01.881Z,58.39
2022-08-17T07:25:31.388Z,58.56
2022-08-17T07:28:04.238Z,60.05
2022-08-17T07:30:47.613Z,58.49
2022-08-17T07:33:23.735Z,57.44
2022-08-17T07:35:52.798Z,57.63
2022-08-17T07:38:27.626Z,57.28
2022-08-17T07:41:06.161Z,57.00
2022-08-17T07:43:37.516Z,56.39
2022-08-17T07:46:34.364Z,56.97
2022-08-17T07:49:26.030Z,56.68
2022-08-17T07:52:24.319Z,55.91
2022-08-17T07:54:56.122Z,56.84
2022-08-17T07:57:37.040Z,56.61
2022-08-17T08:00:31.737Z,56.85
2022-08-17T08:03:22.930Z,54.86
2022-08-17T08:06:01.254Z,55.41
2022-08-17T08:08:34.650Z,56.49
2022-08-17T08:11:09.233Z,54.82
2022-08-17T08:13:43.804Z,55.38
2022-08-17T08:16:29.635Z,54.06
2022-08-17T08:19:00.608Z,53.52
2022-08-17T08:21:48.275Z,52.91
2022-08-17T08:24:41.585Z,53.90
2022-08-17T08:27:22.561Z,53.34
2022-08-17T08:29:58.822Z,54.14
2022-08-17T08:32:45.507Z,54.32
2022-08-17T08:35:29.578Z,54.72
2022-08-17T08:38:07.431Z,56.06
2022-08-17T08:40:53.616Z,55.53
2022-08-17T08:43:36.235Z,56.17
2022-08-17T08:46:19.726Z,56.07
2022-08-17T08:49:59.557Z,55.23
2022-08-17T08:52:46.728Z,53.88
2022-08-17T08:55:22.716Z,53.82
2022-08-17T08:57:58.812Z,53.60
2022-08-17T09:00:29.914Z,53.68
2022-08-17T09:03:36.754Z,53.49
2022-08-17T09:06:39.306Z,53.55
2022-08-17T09:09:20.696Z,53.85
2022-08-17T09:12:01.119Z,54.47
2022-08-17T09:14:47.202Z,54.25
2022-08-17T09:17:22.696Z,53.62
2022-08-17T09:19:57.699Z,54.41
2022-08-17T09:22:34.659Z,55.45
2022-08-17T09:25:10.654Z,55.41
2022-08-17T09:28:00.686Z,55.87
2022-08-17T09:30:40.795Z,54.97
2022-08-17T09:33:13.302Z,55.62
2022-08-17T09:35:48.865Z,54.43
2022-08-17T09:38:27.068Z,54.40
2022-08-17T09:41:09.275Z,53.34
2022-08-17T09:43:44.763Z,53.65
2022-08-17T09:46:20.924Z,53.42
2022-08-17T09:48:58.124Z,53.40
2022-08-17T09:51:34.365Z,52.74
2022-08-17T09:54:21.338Z,53.50
2022-08-17T09:57:27.893Z,53.08
2022-08-17T10:00:16.874Z,53.91
2022-08-17T10:03:25.610Z,54.57
2022-08-17T10:06:06.546Z,54.55
2022-08-17T10:08:52.547Z,54.89
2022-08-17T10:11:52.629Z,54.74
2022-08-17T10:14:37.681Z,55.11
2022-08-17T10:17:20.385Z,53.18
2022-08-17T10:19:59.210Z,56.20
2022-08-17T10:22:55.769Z,58.02
2022-08-17T10:25:54.576Z,55.79
2022-08-17T10:28:30.268Z,56.44
2022-08-17T10:31:32.962Z,54.79
2022-08-17T10:34:26.138Z,53.17
2022-08-17T10:37:05.623Z,52.61
2022-08-17T10:39:52.022Z,52.35
2022-08-17T10:42:30.758Z,51.50
2022-08-17T10:45:07.763Z,51.33
2022-08-17T10:48:04.694Z,50.09
2022-08-17T10:51:08.656Z,50.70
2022-08-17T10:54:01.729Z,51.77
2022-08-17T10:56:51.321Z,50.43
2022-08-17T10:59:51.843Z,50.89
2022-08-17T11:02:28.095Z,51.29
2022-08-17T11:05:26.699Z,53.16
2022-08-17T11:08:20.512Z,51.82
2022-08-17T11:11:36.669Z,51.40
2022-08-17T11:14:47.151Z,52.83
2022-08-17T11:17:41.507Z,53.61
2022-08-17T11:21:12.774Z,53.26
2022-08-17T11:23:58.525Z,52.76
2022-08-17T11:26:29.861Z,53.85
2022-08-17T11:29:01.790Z,54.15
2022-08-17T11:31:41.098Z,53.71
2022-08-17T11:34:20.233Z,54.07
2022-08-17T11:37:22.125Z,54.79
2022-08-17T11:40:12.736Z,54.63
2022-08-17T11:42:59.345Z,54.68
2022-08-17T11:45:57.981Z,52.73
2022-08-17T11:48:56.262Z,53.34
2022-08-17T11:51:58.400Z,53.64
2022-08-17T11:54:47.879Z,54.11
2022-08-17T11:58:01.530Z,54.49
2022-08-17T12:00:58.683Z,54.37
2022-08-17T12:03:55.653Z,53.96
2022-08-17T12:06:42.944Z,53.80
2022-08-17T12:09:18.608Z,52.64
2022-08-17T12:12:12.594Z,52.33
2022-08-17T12:17:40.531Z,52.70
2022-08-17T12:20:19.658Z,53.89
2022-08-17T12:22:56.400Z,52.18
2022-08-17T12:25:33.118Z,51.94
2022-08-17T12:28:06.523Z,52.07
2022-08-17T12:30:37.923Z,51.56
2022-08-17T12:33:25.419Z,51.94
2022-08-17T12:36:04.155Z,51.55
2022-08-17T12:38:36.124Z,52.82
2022-08-17T12:41:22.450Z,53.23
2022-08-17T12:44:01.996Z,51.88
2022-08-17T12:46:35.829Z,52.54
2022-08-17T12:49:24.001Z,52.09
2022-08-17T12:52:04.732Z,53.23
2022-08-17T12:54:49.264Z,52.65
2022-08-17T12:57:21.184Z,50.98
2022-08-17T12:59:58.417Z,50.14
2022-08-17T13:02:40.475Z,51.88
2022-08-17T13:05:28.320Z,51.30
2022-08-17T13:08:00.946Z,48.72
2022-08-17T13:10:33.247Z,48.37
2022-08-17T13:13:05.801Z,47.59
2022-08-17T13:15:45.931Z,47.27
2022-08-17T13:18:50.952Z,47.40
2022-08-17T13:21:28.036Z,46.28
2022-08-17T13:24:02.475Z,46.59
2022-08-17T13:26:35.672Z,45.95
2022-08-17T13:29:08.798Z,45.27
2022-08-17T13:31:51.787Z,44.38
2022-08-17T13:34:59.646Z,44.03
2022-08-17T13:37:34.154Z,42.94
2022-08-17T13:40:31.629Z,40.68
2022-08-17T13:43:03.343Z,39.80
2022-08-17T13:45:51.060Z,40.19
2022-08-17T13:48:29.708Z,40.18
2022-08-17T13:51:23.682Z,38.75
2022-08-17T13:54:07.476Z,37.35
2022-08-17T13:56:48.062Z,38.69
2022-08-17T13:59:52.910Z,37.28
2022-08-17T14:02:19.567Z,35.07
2022-08-17T14:04:49.428Z,35.42
2022-08-17T14:07:32.363Z,33.39
2022-08-17T14:10:04.996Z,32.73
2022-08-17T14:12:39.708Z,34.93
2022-08-17T14:15:10.596Z,35.31
2022-08-17T14:17:39.682Z,34.50
2022-08-17T14:20:12.388Z,34.08
2022-08-17T14:22:44.853Z,34.18
2022-08-17T14:25:15.668Z,33.70
2022-08-17T14:27:52.178Z,32.93
2022-08-17T14:30:25.209Z,33.34
2022-08-17T14:32:54.558Z,33.25
2022-08-17T14:35:27.365Z,32.86
2022-08-17T14:37:55.941Z,33.67
2022-08-17T14:40:25.686Z,31.96
2022-08-17T14:42:57.827Z,32.33
2022-08-17T14:45:31.812Z,33.22
2022-08-17T14:48:01.878Z,31.62
2022-08-17T14:50:30.347Z,31.70
2022-08-17T14:53:01.608Z,32.08
2022-08-17T14:55:30.997Z,32.29
2022-08-17T14:58:01.295Z,32.77
2022-08-17T15:00:29.877Z,33.34
2022-08-17T15:03:00.289Z,32.12
2022-08-17T15:05:32.459Z,32.39
2022-08-17T15:08:01.917Z,32.11
2022-08-17T15:10:32.602Z,32.67
2022-08-17T15:13:02.535Z,32.26
2022-08-17T15:15:31.502Z,33.00
2022-08-17T15:18:01.104Z,34.13
2022-08-17T15:20:31.140Z,32.52
2022-08-17T15:22:59.865Z,33.24
2022-08-17T15:25:31.881Z,33.59
2022-08-17T15:28:02.637Z,33.05
2022-08-17T15:30:31.767Z,33.47
2022-08-17T15:33:03.931Z,33.51
2022-08-17T15:35:34.225Z,32.25
2022-08-17T15:38:12.032Z,32.50
2022-08-17T15:40:44.038Z,32.15
2022-08-17T15:43:16.541Z,32.53
2022-08-17T15:45:58.620Z,32.08
2022-08-17T15:48:41.903Z,32.17
2022-08-17T15:51:14.164Z,32.57
2022-08-17T15:53:45.420Z,32.28
2022-08-17T15:56:14.956Z,31.34
2022-08-17T15:58:47.443Z,31.72
2022-08-17T16:01:35.150Z,32.10
2022-08-17T16:04:07.124Z,32.43
2022-08-17T16:06:55.241Z,31.55
2022-08-17T16:09:23.624Z,32.59
2022-08-17T16:11:55.198Z,32.53
2022-08-17T16:14:32.301Z,33.22
2022-08-17T16:17:04.352Z,32.44
2022-08-17T16:19:34.359Z,32.73
2022-08-17T16:22:03.565Z,32.26
2022-08-17T16:24:32.363Z,32.36
2022-08-17T16:27:01.323Z,33.36
2022-08-17T16:29:31.373Z,33.08
2022-08-17T16:32:08.653Z,32.45
2022-08-17T16:34:37.061Z,32.93
2022-08-17T16:37:05.878Z,32.78
2022-08-17T16:39:34.345Z,32.17
2022-08-17T16:42:03.007Z,32.35
2022-08-17T16:44:33.459Z,32.80
2022-08-17T16:47:01.945Z,32.89
2022-08-17T16:49:36.670Z,34.16
2022-08-17T16:52:11.022Z,34.09
2022-08-17T16:54:41.887Z,34.52
2022-08-17T16:57:10.947Z,35.05
2022-08-17T16:59:45.016Z,35.66
2022-08-17T17:02:22.340Z,36.01
2022-08-17T17:04:56.860Z,36.32
2022-08-17T17:07:45.326Z,36.51
2022-08-17T17:10:17.950Z,37.06
2022-08-17T17:13:01.131Z,36.90
2022-08-17T17:15:51.723Z,36.83
2022-08-17T17:18:23.557Z,35.93
2022-08-17T17:20:57.936Z,35.58
2022-08-17T17:23:43.521Z,35.18
2022-08-17T17:26:35.490Z,35.16
2022-08-17T17:29:21.507Z,35.26
2022-08-17T17:32:03.116Z,35.84
2022-08-17T17:34:34.417Z,35.94
2022-08-17T17:37:09.160Z,36.60
2022-08-17T17:39:44.132Z,37.40
2022-08-17T17:42:20.088Z,37.80
2022-08-17T17:44:54.282Z,38.24
2022-08-17T17:47:24.344Z,39.47
2022-08-17T17:49:52.740Z,39.48
2022-08-17T17:52:28.409Z,40.27
2022-08-17T17:55:19.784Z,40.32
2022-08-17T17:58:01.938Z,41.01
2022-08-17T18:00:38.878Z,41.41
2022-08-17T18:03:27.640Z,41.46
2022-08-17T18:06:21.280Z,41.83
2022-08-17T18:09:04.044Z,41.79
2022-08-17T18:12:13.484Z,41.61
2022-08-17T18:15:05.489Z,42.28
2022-08-17T18:17:33.897Z,42.01
2022-08-17T18:20:04.634Z,42.29
2022-08-17T18:22:32.944Z,42.13
2022-08-17T18:25:01.478Z,42.13
2022-08-17T18:27:37.903Z,42.38
2022-08-17T18:30:29.005Z,42.50
2022-08-17T18:33:23.126Z,43.10
2022-08-17T18:35:59.259Z,43.46
2022-08-17T18:38:33.824Z,43.41
2022-08-17T18:41:08.576Z,43.27
2022-08-17T18:43:53.325Z,43.71
2022-08-17T18:46:33.184Z,43.88
2022-08-17T18:49:04.674Z,43.95
2022-08-17T18:51:41.455Z,43.81
2022-08-17T18:54:22.257Z,43.93
2022-08-17T18:56:59.331Z,44.11
2022-08-17T18:59:34.624Z,44.65
2022-08-17T19:02:43.447Z,43.93
2022-08-17T19:05:31.840Z,44.27
2022-08-17T19:10:59.253Z,44.49
2022-08-17T19:13:36.566Z,44.91
2022-08-17T19:16:14.930Z,45.63
2022-08-17T19:18:50.912Z,45.55
2022-08-17T19:21:28.301Z,46.39
2022-08-17T19:24:04.432Z,46.54
2022-08-17T19:26:54.392Z,46.85
2022-08-17T19:29:31.258Z,46.35
2022-08-17T19:32:03.109Z,46.53
2022-08-17T19:34:35.780Z,46.73
2022-08-17T19:37:12.580Z,46.78
2022-08-17T19:39:50.884Z,47.28
2022-08-17T19:42:33.884Z,47.65
2022-08-17T19:45:13.187Z,47.01
2022-08-17T19:47:55.080Z,47.18
2022-08-17T19:50:38.470Z,47.44
2022-08-17T19:53:19.200Z,47.56
2022-08-17T19:55:58.853Z,47.83
2022-08-17T19:58:46.861Z,47.98
2022-08-17T20:01:21.959Z,48.18
2022-08-17T20:04:00.041Z,48.40
2022-08-17T20:06:34.509Z,48.86
2022-08-17T20:09:15.241Z,48.80
2022-08-17T20:11:49.220Z,49.04
2022-08-17T20:14:22.319Z,49.28
2022-08-17T20:16:51.396Z,49.41
2022-08-17T20:19:28.048Z,49.76
2022-08-17T20:22:02.936Z,49.47
2022-08-17T20:24:40.423Z,49.71
2022-08-17T20:27:16.523Z,49.87
2022-08-17T20:30:10.716Z,50.17
2022-08-17T20:32:55.180Z,50.10
2022-08-17T20:35:27.311Z,50.09
2022-08-17T20:37:59.738Z,50.40
2022-08-17T20:40:34.260Z,50.80
2022-08-17T20:44:02.901Z,50.34
2022-08-17T20:46:58.109Z,50.56
2022-08-17T20:49:40.248Z,50.48
2022-08-17T20:52:15.573Z,50.43
2022-08-17T20:54:49.521Z,50.44
2022-08-17T20:57:48.486Z,51.19
2022-08-17T21:00:44.907Z,51.14
2022-08-17T21:03:50.242Z,51.36
2022-08-17T21:06:25.344Z,51.55
2022-08-17T21:08:58.910Z,51.83
2022-08-17T21:12:04.601Z,52.15
2022-08-17T21:14:59.795Z,52.35
2022-08-17T21:17:42.993Z,52.21
2022-08-17T21:20:32.587Z,52.31
2022-08-17T21:23:31.294Z,52.12
2022-08-17T21:26:18.395Z,52.08
2022-08-17T21:29:32.465Z,52.02
2022-08-17T21:32:24.266Z,52.16
2022-08-17T21:35:30.073Z,52.52
2022-08-17T21:38:04.934Z,52.62
2022-08-17T21:40:36.298Z,52.81
2022-08-17T21:43:23.532Z,53.22
2022-08-17T21:46:05.167Z,53.51
2022-08-17T21:48:43.820Z,53.78
2022-08-17T21:51:19.454Z,53.82
2022-08-17T21:53:52.019Z,54.03
2022-08-17T21:56:27.698Z,54.12
2022-08-17T21:59:00.403Z,54.15
2022-08-17T22:01:34.776Z,54.23
2022-08-17T22:04:19.729Z,54.15
2022-08-17T22:06:57.419Z,54.40
2022-08-17T22:09:29.946Z,54.52
2022-08-17T22:12:09.043Z,54.97
2022-08-17T22:14:52.754Z,55.39
2022-08-17T22:17:25.266Z,55.48
2022-08-17T22:19:59.702Z,55.76
2022-08-17T22:22:56.469Z,55.42
2022-08-17T22:25:26.842Z,55.45
2022-08-17T22:27:58.458Z,55.55
2022-08-17T22:30:36.278Z,55.87
2022-08-17T22:36:22.062Z,56.98
2022-08-17T22:38:55.241Z,57.52
2022-08-17T22:41:41.169Z,57.47
2022-08-17T22:44:24.191Z,58.05
2022-08-17T22:46:59.002Z,58.10
2022-08-17T22:49:31.954Z,58.21
2022-08-17T22:52:08.856Z,58.48
2022-08-17T22:54:55.968Z,58.18
2022-08-17T22:57:51.318Z,58.28
2022-08-17T23:00:34.400Z,57.55
2022-08-17T23:03:18.599Z,57.78
2022-08-17T23:05:49.900Z,58.24
2022-08-17T23:08:21.260Z,59.24
2022-08-17T23:10:51.297Z,59.69
2022-08-17T23:13:21.219Z,61.01
2022-08-17T23:15:51.295Z,61.97
2022-08-17T23:18:19.884Z,62.00
2022-08-17T23:20:48.339Z,62.70
2022-08-17T23:23:20.638Z,63.97
2022-08-17T23:25:54.328Z,64.42
2022-08-17T23:28:22.692Z,65.18
2022-08-17T23:30:51.140Z,65.92
2022-08-17T23:33:27.489Z,66.87
2022-08-17T23:35:55.780Z,66.87
2022-08-17T23:38:26.964Z,67.20
2022-08-17T23:41:00.935Z,67.24
2022-08-17T23:43:31.396Z,67.43
2022-08-17T23:46:03.556Z,67.56
2022-08-17T23:48:35.783Z,67.32
2022-08-17T23:51:10.681Z,67.34
2022-08-17T23:53:43.982Z,67.68
2022-08-17T23:56:13.990Z,67.37
2022-08-17T23:58:44.665Z,67.87
